Big Bear Station Historical Data
Daily Summary for July 9, 2017 Units:  English    Metric   Both
« Previous Day
Next Day »
Daily Weekly Monthly Yearly Custom
  High: Low: Average:
Temperature: 84.6 °F 55.0 °F 67.7 °F
Dew Point: 57.3 °F 47.9 °F 52.6 °F
Humidity: 81 % 35 % 60 %
Wind Speed: 6.3 mph 0.0 mph 1.5 mph
Wind Gust: -999.0 mph - -
Wind:- - SW
Pressure: 30.35 in 30.27 in -
Precipitation: 0.00 in    
Historical Graphs
 
 
Tabular Data for July 9, 2017
Time Temperature Dew Point Pressure Wind Wind Speed Wind Gust Humidity Rainfall Rate (Hourly)
00:07 57.7 °F 48.7 °F 30.32 in Calm   -999.0 mph 72 % 0 in
00:22 58.3 °F 48.6 °F 30.32 in Calm   -999.0 mph 70 % 0 in
00:38 59.0 °F 50.0 °F 30.32 in SSW 3.7 mph -999.0 mph 72 % 0 in
01:08 59.2 °F 50.2 °F 30.32 in Calm   -999.0 mph 72 % 0 in
01:24 59.7 °F 50.7 °F 30.32 in South 2.7 mph -999.0 mph 72 % 0 in
01:39 59.2 °F 48.2 °F 30.32 in Calm   -999.0 mph 67 % 0 in
01:54 59.4 °F 48.8 °F 30.32 in South 2.2 mph -999.0 mph 68 % 0 in
02:10 59.0 °F 48.8 °F 30.31 in Calm   -999.0 mph 69 % 0 in
02:25 58.5 °F 49.9 °F 30.31 in Calm   -999.0 mph 73 % 0 in
02:40 58.5 °F 48.8 °F 30.31 in Calm   -999.0 mph 70 % 0 in
02:55 57.9 °F 48.6 °F 30.31 in Calm   -999.0 mph 71 % 0 in
03:10 57.9 °F 49.3 °F 30.31 in SSW 1.7 mph -999.0 mph 73 % 0 in
03:26 57.6 °F 49.7 °F 30.31 in Calm   -999.0 mph 75 % 0 in
03:41 57.2 °F 50.4 °F 30.31 in Calm   -999.0 mph 78 % 0 in
03:57 56.8 °F 50.7 °F 30.30 in Calm   -999.0 mph 80 % 0 in
04:12 56.7 °F 50.9 °F 30.30 in Calm   -999.0 mph 81 % 0 in
04:27 56.5 °F 50.7 °F 30.30 in Calm   -999.0 mph 81 % 0 in
04:42 56.1 °F 50.4 °F 30.30 in Calm   -999.0 mph 81 % 0 in
04:57 55.9 °F 50.2 °F 30.30 in Calm   -999.0 mph 81 % 0 in
05:13 55.8 °F 48.7 °F 30.30 in Calm   -999.0 mph 77 % 0 in
05:28 55.4 °F 48.7 °F 30.30 in Calm   -999.0 mph 78 % 0 in
05:44 55.0 °F 47.9 °F 30.30 in Calm   -999.0 mph 77 % 0 in
05:59 55.0 °F 48.3 °F 30.30 in Calm   -999.0 mph 78 % 0 in
06:14 55.2 °F 48.5 °F 30.30 in Calm   -999.0 mph 78 % 0 in
06:30 56.5 °F 50.4 °F 30.30 in South 2.7 mph -999.0 mph 80 % 0 in
06:45 59.0 °F 50.0 °F 30.31 in South 2.2 mph -999.0 mph 72 % 0 in
07:01 60.4 °F 50.6 °F 30.31 in Calm   -999.0 mph 70 % 0 in
07:16 60.6 °F 51.5 °F 30.31 in Calm   -999.0 mph 72 % 0 in
07:31 61.5 °F 52.0 °F 30.32 in SSE 1.7 mph -999.0 mph 71 % 0 in
07:46 62.6 °F 53.1 °F 30.33 in Calm   -999.0 mph 71 % 0 in
08:02 64.0 °F 54.8 °F 30.33 in Calm   -999.0 mph 72 % 0 in
08:17 65.3 °F 55.7 °F 30.33 in Calm   -999.0 mph 71 % 0 in
08:32 67.1 °F 56.2 °F 30.34 in Calm   -999.0 mph 68 % 0 in
08:47 69.3 °F 56.6 °F 30.33 in NW 2.7 mph -999.0 mph 64 % 0 in
09:02 70.3 °F 53.4 °F 30.33 in NW 2.2 mph -999.0 mph 55 % 0 in
09:17 71.2 °F 53.2 °F 30.34 in NW 2.7 mph -999.0 mph 53 % 0 in
09:33 72.5 °F 53.9 °F 30.33 in NW 6.3 mph -999.0 mph 52 % 0 in
09:48 73.4 °F 54.2 °F 30.33 in NW 5.3 mph -999.0 mph 51 % 0 in
10:03 73.6 °F 53.8 °F 30.33 in North 2.2 mph -999.0 mph 50 % 0 in
10:19 74.5 °F 54.6 °F 30.33 in NNW 2.7 mph -999.0 mph 50 % 0 in
10:34 74.7 °F 54.8 °F 30.34 in NW 3.2 mph -999.0 mph 50 % 0 in
10:50 76.5 °F 54.8 °F 30.33 in WNW 3.2 mph -999.0 mph 47 % 0 in
11:05 75.2 °F 54.2 °F 30.33 in Calm   -999.0 mph 48 % 0 in
11:20 74.8 °F 53.8 °F 30.34 in NNE 1.1 mph -999.0 mph 48 % 0 in
11:36 73.9 °F 53.5 °F 30.34 in South 5.8 mph -999.0 mph 49 % 0 in
11:51 75.6 °F 54.0 °F 30.34 in Calm   -999.0 mph 47 % 0 in
12:06 74.7 °F 53.1 °F 30.35 in SW 4.2 mph -999.0 mph 47 % 0 in
12:21 75.0 °F 53.4 °F 30.35 in Calm   -999.0 mph 47 % 0 in
12:36 75.0 °F 53.4 °F 30.34 in ESE 2.2 mph -999.0 mph 47 % 0 in
12:52 74.5 °F 53.5 °F 30.34 in SW 1.7 mph -999.0 mph 48 % 0 in
13:07 76.1 °F 55.0 °F 30.33 in NNE 4.2 mph -999.0 mph 48 % 0 in
13:22 78.4 °F 55.9 °F 30.33 in NNW 3.7 mph -999.0 mph 46 % 0 in
13:37 78.4 °F 55.9 °F 30.33 in NNW 3.7 mph -999.0 mph 46 % 0 in
13:52 81.3 °F 57.3 °F 30.32 in NNW 4.7 mph -999.0 mph 44 % 0 in
14:08 84.6 °F 56.2 °F 30.31 in West 1.1 mph -999.0 mph 38 % 0 in
14:23 84.2 °F 53.6 °F 30.31 in SSW 2.7 mph -999.0 mph 35 % 0 in
14:38 81.1 °F 53.8 °F 30.31 in SE 1.7 mph -999.0 mph 39 % 0 in
14:53 78.6 °F 54.9 °F 30.31 in South 1.1 mph -999.0 mph 44 % 0 in
15:08 78.4 °F 55.9 °F 30.31 in SSE 1.7 mph -999.0 mph 46 % 0 in
15:24 78.4 °F 56.5 °F 30.30 in NNW 4.2 mph -999.0 mph 47 % 0 in
15:39 77.4 °F 57.3 °F 30.30 in West 2.2 mph -999.0 mph 50 % 0 in
15:54 77.0 °F 56.4 °F 30.29 in West 5.3 mph -999.0 mph 49 % 0 in
16:10 76.6 °F 54.9 °F 30.29 in NNE 1.1 mph -999.0 mph 47 % 0 in
16:25 76.5 °F 54.8 °F 30.28 in SW 2.2 mph -999.0 mph 47 % 0 in
16:40 78.8 °F 55.7 °F 30.28 in Calm   -999.0 mph 45 % 0 in
16:56 77.9 °F 54.2 °F 30.27 in SSE 1.7 mph -999.0 mph 44 % 0 in
17:11 77.2 °F 54.8 °F 30.27 in NW 5.3 mph -999.0 mph 46 % 0 in
17:26 77.2 °F 54.2 °F 30.27 in SSE 2.2 mph -999.0 mph 45 % 0 in
17:42 77.9 °F 54.9 °F 30.27 in SW 1.1 mph -999.0 mph 45 % 0 in
17:57 75.4 °F 54.4 °F 30.27 in SSE 4.7 mph -999.0 mph 48 % 0 in
18:12 75.9 °F 54.8 °F 30.27 in Calm   -999.0 mph 48 % 0 in
18:27 78.3 °F 54.6 °F 30.27 in NW 3.2 mph -999.0 mph 44 % 0 in
18:42 78.1 °F 54.4 °F 30.27 in NW 3.7 mph -999.0 mph 44 % 0 in
18:58 77.9 °F 54.9 °F 30.27 in SW 2.2 mph -999.0 mph 45 % 0 in
19:13 76.6 °F 55.4 °F 30.27 in NW 2.2 mph -999.0 mph 48 % 0 in
19:28 72.1 °F 55.0 °F 30.27 in NW 2.7 mph -999.0 mph 55 % 0 in
19:43 69.4 °F 54.5 °F 30.27 in Calm   -999.0 mph 59 % 0 in
19:58 67.6 °F 54.1 °F 30.28 in Calm   -999.0 mph 62 % 0 in
20:14 66.9 °F 53.5 °F 30.28 in Calm   -999.0 mph 62 % 0 in
20:29 65.7 °F 52.8 °F 30.28 in Calm   -999.0 mph 63 % 0 in
20:44 65.1 °F 51.8 °F 30.29 in Calm   -999.0 mph 62 % 0 in
20:59 64.9 °F 51.6 °F 30.29 in South 2.2 mph -999.0 mph 62 % 0 in
21:14 64.4 °F 51.5 °F 30.29 in SSE 2.7 mph -999.0 mph 63 % 0 in
21:30 63.9 °F 51.5 °F 30.30 in SSW 1.7 mph -999.0 mph 64 % 0 in
21:45 63.0 °F 51.5 °F 30.30 in Calm   -999.0 mph 66 % 0 in
22:00 62.2 °F 50.7 °F 30.30 in Calm   -999.0 mph 66 % 0 in
22:15 61.7 °F 50.2 °F 30.30 in Calm   -999.0 mph 66 % 0 in
22:31 61.0 °F 50.4 °F 30.30 in Calm   -999.0 mph 68 % 0 in
22:46 60.6 °F 51.1 °F 30.30 in Calm   -999.0 mph 71 % 0 in
23:01 59.7 °F 51.0 °F 30.30 in Calm   -999.0 mph 73 % 0 in
23:16 59.5 °F 51.6 °F 30.29 in Calm   -999.0 mph 75 % 0 in
23:31 59.0 °F 51.1 °F 30.29 in Calm   -999.0 mph 75 % 0 in
23:47 58.3 °F 50.8 °F 30.29 in Calm   -999.0 mph 76 % 0 in
Big Bear CA Weather
Compliments of Weather Underground - 1.5 mb